Αρχική σελίδα
METAR-TAF:

METAR-TAF

Αεροδρόμια :

Cayo Coco, Κούβα

γεωγραφικό πλάτος: 22-27-40N, γεωγραφικό μήκος: 078-19-42W, υψόμετρο: 4 μ

Παρών καιρός

Η αναφορά έγινε 34 λεπτά πριν, στις 05:51 UTC
Άνεμος 5 kt από
Θερμοκρασία 21°C
Υγρασία 78%
Πίεση 1015 hPa
Ορατότητα: 9000 μ
Λίγα νέφη σε ύψος 1800 πόδια

METAR: MUCC 220551Z 32005KT 9000 FEW018 21/17 Q1015

Χρόνος: 02:25 (06:25 UTC)

Πρόγνωση Καιρού

Η αναφορά έγινε 1 ώρα και 25 λεπτά πριν, στις 05:00 UTC
Η πρόγνωση ισχύει από τις 22 στις 06 UTC έως τις 23 στις 06 UTC
Άνεμος 3 kt από μεταβλητές κατευθύνσεις
Ορατότητα: 9000 μ
Διάσπαρτα νέφη σε ύψος 2000 πόδια
Καθιστάμενος
από 22 στις 13 UTC έως τις 22 στις 15 UTC
Άνεμος 10 kt από Β
Καθιστάμενος
από 23 στις 03 UTC έως τις 23 στις 05 UTC
Άνεμος 3 kt από μεταβλητές κατευθύνσεις

TAF: MUCC 220500Z 2206/2306 VRB03KT 9000 SCT020 BECMG 2213/2215 36010KT BECMG 2303/2305 VRB03KT

Μετεωρολογικές αναφορές και προγνώσεις για περισσότερα από 4000 αεροδρόμια (δελτία METAR και TAF).

Οι διαθέσιμοι σταθμοί απεικονίζονται στο χάρτη με κίτρινες και κόκκινες κουκκίδες.

Μετακινήστε το ποντίκι πάνω από τις κουκκίδες για να δείτε το όνομα του σταθμού.

Στη συνέχεια, κάντε κλικ για να δείτε τις μετεωρολογικές αναφορές και τις προγνώσεις καιρού.

Για να αλλάξετε το χάρτη: κάντε κλικ στα πράσινα κουμπιά με τον μαύρο σταυρό για να ζουμάρετε, στο πράσινο κουμπί με την παύλα για να αφαιρέσετε το ζουμ ή στα πράσινα βέλη για να αντιπαραβάλλετε χάρτες.


METAR-TAF: